createdAt,value
2024-02-21T00:01:57.993Z,99132.44
2024-02-21T00:05:00.939Z,99153.56
2024-02-21T00:08:04.479Z,99149.13
2024-02-21T00:11:07.853Z,99141.97
2024-02-21T00:14:10.354Z,99144.72
2024-02-21T00:17:13.086Z,99150.03
2024-02-21T00:20:15.627Z,99145.56
2024-02-21T00:23:18.453Z,99154.44
2024-02-21T00:26:20.985Z,99141.94
2024-02-21T00:29:23.858Z,99148.16
2024-02-21T00:32:26.415Z,99138.34
2024-02-21T00:35:29.195Z,99127.75
2024-02-21T00:38:31.754Z,99133.94
2024-02-21T00:41:34.522Z,99137.47
2024-02-21T00:44:37.043Z,99101.16
2024-02-21T00:47:39.884Z,99133.06
2024-02-21T00:50:42.584Z,99125.94
2024-02-21T00:53:45.296Z,99126.78
2024-02-21T00:56:47.945Z,99130.31
2024-02-21T00:59:50.747Z,99136.59
2024-02-21T01:02:54.213Z,99121.44
2024-02-21T01:05:57.234Z,99133.88
2024-02-21T01:08:59.649Z,99125.00
2024-02-21T01:12:02.612Z,99126.78
2024-02-21T01:15:05.858Z,99115.22
2024-02-21T01:18:08.683Z,99106.38
2024-02-21T01:21:11.606Z,99104.56
2024-02-21T01:24:15.372Z,99107.25
2024-02-21T01:27:17.810Z,99102.78
2024-02-21T01:30:20.680Z,99104.59
2024-02-21T01:33:23.181Z,99105.50
2024-02-21T01:36:25.865Z,99100.22
2024-02-21T01:39:28.355Z,99091.31
2024-02-21T01:42:31.055Z,99089.53
2024-02-21T01:45:33.454Z,99090.44
2024-02-21T01:48:36.801Z,99091.34
2024-02-21T01:51:40.013Z,99089.62
2024-02-21T01:54:43.767Z,99092.28
2024-02-21T01:57:46.488Z,99090.56
2024-02-21T02:00:49.812Z,99102.09
2024-02-21T02:03:53.912Z,99091.50
2024-02-21T02:06:56.967Z,99062.28
2024-02-21T02:10:00.045Z,99087.03
2024-02-21T02:13:02.632Z,99079.97
2024-02-21T02:16:05.996Z,99085.31
2024-02-21T02:19:08.727Z,99083.53
2024-02-21T02:22:16.480Z,99078.25
2024-02-21T02:25:19.039Z,99083.62
2024-02-21T02:28:22.263Z,99078.37
2024-02-21T02:31:24.862Z,99078.37
2024-02-21T02:34:27.763Z,99074.84
2024-02-21T02:37:30.286Z,99071.25
2024-02-21T02:40:34.811Z,99070.41
2024-02-21T02:43:38.039Z,99070.44
2024-02-21T02:46:44.241Z,99079.31
2024-02-21T02:49:51.843Z,99045.78
2024-02-21T02:52:55.531Z,99077.63
2024-02-21T02:55:58.069Z,99087.41
2024-02-21T02:59:00.914Z,99082.94
2024-02-21T03:02:03.542Z,99078.53
2024-02-21T03:05:14.702Z,99081.22
2024-02-21T03:08:17.191Z,99082.12
2024-02-21T03:11:20.264Z,99083.97
2024-02-21T03:14:22.789Z,99078.56
2024-02-21T03:17:26.141Z,99076.84
2024-02-21T03:20:28.568Z,99078.66
2024-02-21T03:23:31.405Z,99070.72
2024-02-21T03:26:33.906Z,99085.78
2024-02-21T03:29:36.663Z,99093.78
2024-02-21T03:32:40.344Z,99081.31
2024-02-21T03:35:43.339Z,99090.25
2024-02-21T03:38:46.076Z,99094.72
2024-02-21T03:41:48.860Z,99095.63
2024-02-21T03:44:51.251Z,99100.13
2024-02-21T03:47:54.115Z,99101.00
2024-02-21T03:50:56.596Z,99100.19
2024-02-21T03:53:59.279Z,99100.19
2024-02-21T03:57:01.820Z,99096.66
2024-02-21T04:00:05.156Z,99102.00
2024-02-21T04:03:10.272Z,99104.72
2024-02-21T04:06:13.650Z,99095.00
2024-02-21T04:09:16.174Z,99090.53
2024-02-21T04:12:19.338Z,99088.84
2024-02-21T04:15:21.847Z,99090.59
2024-02-21T04:18:24.562Z,99103.06
2024-02-21T04:21:27.080Z,99103.06
2024-02-21T04:24:29.790Z,99105.78
2024-02-21T04:27:32.164Z,99096.91
2024-02-21T04:30:34.871Z,99103.13
2024-02-21T04:33:37.237Z,99111.16
2024-02-21T04:36:39.933Z,99096.97
2024-02-21T04:39:42.324Z,99096.09
2024-02-21T04:42:45.178Z,99087.25
2024-02-21T04:45:47.633Z,99017.41
2024-02-21T04:48:50.380Z,99091.75
2024-02-21T04:51:52.898Z,99090.88
2024-02-21T04:54:55.691Z,99024.53
2024-02-21T04:57:58.524Z,99089.13
2024-02-21T05:01:01.330Z,99089.13
2024-02-21T05:04:03.987Z,99090.91
2024-02-21T05:07:06.832Z,99089.16
2024-02-21T05:10:10.697Z,99088.31
2024-02-21T05:13:13.545Z,99090.97
2024-02-21T05:16:16.119Z,99086.50
2024-02-21T05:19:18.965Z,99089.19
2024-02-21T05:22:21.684Z,99093.63
2024-02-21T05:25:24.500Z,99099.84
2024-02-21T05:28:27.028Z,99087.47
2024-02-21T05:31:51.903Z,99095.44
2024-02-21T05:34:54.751Z,99102.53
2024-02-21T05:37:57.586Z,99097.19
2024-02-21T05:41:00.414Z,99103.44
2024-02-21T05:44:03.672Z,99103.44
2024-02-21T05:47:10.940Z,99099.91
2024-02-21T05:50:13.788Z,99114.09
2024-02-21T05:53:16.233Z,99112.31
2024-02-21T05:56:19.282Z,99113.22
2024-02-21T05:59:21.859Z,99117.66
2024-02-21T06:02:24.699Z,99118.56
2024-02-21T06:05:27.414Z,99122.13
2024-02-21T06:08:30.161Z,99126.56
2024-02-21T06:11:32.935Z,99092.94
2024-02-21T06:14:35.432Z,99122.13
2024-02-21T06:17:38.232Z,99125.66
2024-02-21T06:20:41.961Z,99133.28
2024-02-21T06:23:44.828Z,99114.81
2024-02-21T06:26:47.458Z,99145.88
2024-02-21T06:29:50.189Z,99147.69
2024-02-21T06:32:52.728Z,99145.06
2024-02-21T06:35:55.701Z,99112.28
2024-02-21T06:38:58.358Z,99144.16
2024-02-21T06:42:03.862Z,99152.12
2024-02-21T06:45:07.046Z,99148.56
2024-02-21T06:48:10.036Z,99148.53
2024-02-21T06:51:12.582Z,99148.53
2024-02-21T06:54:15.485Z,99151.16
2024-02-21T06:57:17.960Z,99158.22
2024-02-21T07:00:22.659Z,99077.66
2024-02-21T07:03:25.854Z,99165.25
2024-02-21T07:06:29.933Z,99159.00
2024-02-21T07:09:33.494Z,99159.81
2024-02-21T07:12:38.152Z,99166.88
2024-02-21T07:15:40.747Z,99164.97
2024-02-21T07:18:43.520Z,99163.16
2024-02-21T07:21:46.042Z,99166.56
2024-02-21T07:24:48.749Z,99174.47
2024-02-21T07:27:51.201Z,99171.72
2024-02-21T07:30:53.887Z,99168.97
2024-02-21T07:33:56.224Z,99145.84
2024-02-21T07:36:59.148Z,99168.75
2024-02-21T07:40:01.690Z,99169.50
2024-02-21T07:43:04.582Z,99163.97
2024-02-21T07:46:07.029Z,99168.22
2024-02-21T07:49:10.082Z,99167.16
2024-02-21T07:52:12.790Z,99179.44
2024-02-21T07:55:15.718Z,99175.50
2024-02-21T07:58:18.230Z,99173.50
2024-02-21T08:01:23.834Z,99183.09
2024-02-21T08:04:27.089Z,99187.44
2024-02-21T08:07:30.488Z,99196.22
2024-02-21T08:10:33.569Z,99208.56
2024-02-21T08:13:36.121Z,99206.44
2024-02-21T08:16:38.886Z,99201.75
2024-02-21T08:19:41.375Z,99203.28
2024-02-21T08:22:44.291Z,99196.75
2024-02-21T08:25:47.175Z,99177.19
2024-02-21T08:28:50.860Z,99198.03
2024-02-21T08:31:54.783Z,99202.28
2024-02-21T08:34:57.575Z,99196.62
2024-02-21T08:38:00.064Z,99180.47
2024-02-21T08:41:02.941Z,99193.22
2024-02-21T08:44:05.730Z,99182.88
2024-02-21T08:47:10.226Z,99186.00
2024-02-21T08:50:22.735Z,99197.16
2024-02-21T08:53:30.094Z,99171.41
2024-02-21T08:56:32.659Z,99189.44
2024-02-21T08:59:36.125Z,99187.13
2024-02-21T09:02:41.876Z,99193.94
2024-02-21T09:05:44.788Z,99188.78
2024-02-21T09:08:47.433Z,99178.72
2024-02-21T09:11:50.273Z,99178.59
2024-02-21T09:14:52.794Z,99187.44
2024-02-21T09:17:55.757Z,99191.50
2024-02-21T09:20:58.505Z,99188.00
2024-02-21T09:24:01.305Z,99184.53
2024-02-21T09:27:03.840Z,99188.00
2024-02-21T09:30:07.795Z,99192.41
2024-02-21T09:33:11.592Z,99183.34
2024-02-21T09:36:16.092Z,99183.88
2024-02-21T09:39:19.430Z,99187.81
2024-02-21T09:42:25.335Z,99182.12
2024-02-21T09:45:27.811Z,99189.59
2024-02-21T09:48:36.579Z,99183.91
2024-02-21T09:51:39.850Z,99190.81
2024-02-21T09:54:45.743Z,99185.50
2024-02-21T09:57:49.052Z,99187.81
2024-02-21T10:00:51.743Z,99186.31
2024-02-21T10:03:56.606Z,99187.59
2024-02-21T10:07:00.430Z,99176.88
2024-02-21T10:10:06.860Z,99135.62
2024-02-21T10:13:09.497Z,99168.13
2024-02-21T10:16:12.193Z,99174.47
2024-02-21T10:19:21.537Z,99167.38
2024-02-21T10:22:26.685Z,99165.78
2024-02-21T10:25:29.166Z,99164.75
2024-02-21T10:28:32.387Z,99161.03
2024-02-21T10:31:34.959Z,99152.91
2024-02-21T10:34:38.934Z,99151.84
2024-02-21T10:37:41.566Z,99150.16
2024-02-21T10:40:44.922Z,99146.09
2024-02-21T10:43:51.010Z,99143.78
2024-02-21T10:46:53.987Z,99144.62
2024-02-21T10:50:04.830Z,99125.16
2024-02-21T10:53:37.240Z,99125.84
2024-02-21T10:56:40.994Z,99120.97
2024-02-21T10:59:45.626Z,99126.16
2024-02-21T11:02:48.459Z,99111.19
2024-02-21T11:05:52.231Z,99102.31
2024-02-21T11:09:08.538Z,99099.63
2024-02-21T11:12:12.713Z,99105.22
2024-02-21T11:15:16.097Z,99088.47
2024-02-21T11:18:25.416Z,99080.81
2024-02-21T11:21:35.951Z,99078.06
2024-02-21T11:24:39.241Z,99074.97
2024-02-21T11:27:47.156Z,99064.69
2024-02-21T11:30:52.379Z,99061.88
2024-02-21T11:33:55.123Z,99067.97
2024-02-21T11:36:57.861Z,99058.53
2024-02-21T11:40:00.493Z,99056.09
2024-02-21T11:43:03.270Z,99054.47
2024-02-21T11:46:06.436Z,99051.72
2024-02-21T11:49:09.220Z,99053.94
2024-02-21T11:52:11.614Z,99056.44
2024-02-21T11:55:14.294Z,99062.87
2024-02-21T11:58:17.412Z,99044.91
2024-02-21T12:01:20.264Z,99055.47
2024-02-21T12:04:25.124Z,99045.81
2024-02-21T12:07:30.219Z,99036.88
2024-02-21T12:10:34.616Z,99032.63
2024-02-21T12:13:37.149Z,99044.34
2024-02-21T12:16:40.064Z,99042.03
2024-02-21T12:19:42.635Z,99037.38
2024-02-21T12:22:45.573Z,99036.16
2024-02-21T12:25:48.172Z,99027.28
2024-02-21T12:28:51.076Z,99024.78
2024-02-21T12:31:55.061Z,99029.38
2024-02-21T12:34:58.005Z,99020.72
2024-02-21T12:38:01.160Z,99024.75
2024-02-21T12:41:04.488Z,99024.63
2024-02-21T12:44:10.410Z,99020.28
2024-02-21T12:47:13.297Z,99015.06
2024-02-21T12:50:16.400Z,99015.13
2024-02-21T12:53:26.352Z,99014.81
2024-02-21T12:56:34.961Z,99005.59
2024-02-21T12:59:37.752Z,99002.63
2024-02-21T13:02:42.869Z,98995.16
2024-02-21T13:05:45.731Z,98989.66
2024-02-21T13:08:48.255Z,98988.88
2024-02-21T13:11:52.462Z,98988.69
2024-02-21T13:14:55.256Z,98981.19
2024-02-21T13:17:59.179Z,98978.47
2024-02-21T13:21:01.938Z,98968.34
2024-02-21T13:24:05.123Z,98975.38
2024-02-21T13:27:07.870Z,98907.69
2024-02-21T13:30:11.589Z,98970.00
2024-02-21T13:33:14.706Z,98929.62
2024-02-21T13:36:17.559Z,98933.25
2024-02-21T13:39:20.558Z,98955.84
2024-02-21T13:42:23.744Z,98956.09
2024-02-21T13:45:26.202Z,98943.97
2024-02-21T13:48:30.200Z,98943.44
2024-02-21T13:51:34.145Z,98940.06
2024-02-21T13:54:36.848Z,98935.78
2024-02-21T13:57:39.507Z,98932.38
2024-02-21T14:00:42.292Z,98926.25
2024-02-21T14:03:45.036Z,98927.22
2024-02-21T14:06:47.692Z,98924.53
2024-02-21T14:09:50.814Z,98927.47
2024-02-21T14:12:53.606Z,98928.03
2024-02-21T14:15:56.558Z,98928.69
2024-02-21T14:18:59.427Z,98930.31
2024-02-21T14:22:03.468Z,98925.66
2024-02-21T14:25:09.040Z,98930.66
2024-02-21T14:28:11.700Z,98897.50
2024-02-21T14:31:14.178Z,98920.16
2024-02-21T14:34:17.778Z,98918.41
2024-02-21T14:37:20.378Z,98913.31
2024-02-21T14:40:23.257Z,98910.00
2024-02-21T14:43:26.826Z,98908.19
2024-02-21T14:46:29.682Z,98905.59
2024-02-21T14:49:32.357Z,98905.69
2024-02-21T14:52:35.954Z,98899.44
2024-02-21T14:55:39.537Z,98906.94
2024-02-21T14:58:43.126Z,98911.78
2024-02-21T15:01:45.800Z,98912.94
2024-02-21T15:04:48.727Z,98911.25
2024-02-21T15:07:52.037Z,98907.62
2024-02-21T15:10:55.316Z,98890.22
2024-02-21T15:13:57.846Z,98907.88
2024-02-21T15:17:00.768Z,98907.38
2024-02-21T15:20:06.049Z,98903.00
2024-02-21T15:23:09.119Z,98901.25
2024-02-21T15:26:11.742Z,98903.97
2024-02-21T15:29:14.917Z,98899.59
2024-02-21T15:32:17.531Z,98890.84
2024-02-21T15:35:20.517Z,98889.97
2024-02-21T15:38:23.306Z,98891.91
2024-02-21T15:41:26.083Z,98887.59
2024-02-21T15:44:28.556Z,98883.22
2024-02-21T15:47:32.064Z,98893.16
2024-02-21T15:50:34.801Z,98890.69
2024-02-21T15:53:39.544Z,98893.59
2024-02-21T15:56:41.941Z,98898.22
2024-02-21T15:59:44.935Z,98890.31
2024-02-21T16:02:47.633Z,98876.34
2024-02-21T16:05:55.728Z,98893.28
2024-02-21T16:08:58.357Z,98884.38
2024-02-21T16:12:06.144Z,98876.84
2024-02-21T16:15:09.609Z,98882.69
2024-02-21T16:18:12.454Z,98850.72
2024-02-21T16:21:17.448Z,98881.50
2024-02-21T16:24:20.763Z,98891.91
2024-02-21T16:27:23.785Z,98882.63
2024-02-21T16:30:27.165Z,98886.56
2024-02-21T16:33:29.737Z,98877.81
2024-02-21T16:36:32.565Z,98890.22
2024-02-21T16:39:35.070Z,98874.44
2024-02-21T16:42:38.706Z,98883.72
2024-02-21T16:45:44.417Z,98872.81
2024-02-21T16:48:47.962Z,98876.84
2024-02-21T16:51:50.414Z,98875.38
2024-02-21T16:54:53.564Z,98878.31
2024-02-21T16:57:56.100Z,98882.06
2024-02-21T17:01:01.275Z,98874.19
2024-02-21T17:04:04.014Z,98870.22
2024-02-21T17:07:07.391Z,98877.69
2024-02-21T17:10:10.207Z,98873.34
2024-02-21T17:13:13.548Z,98877.88
2024-02-21T17:16:16.071Z,98881.44
2024-02-21T17:19:18.943Z,98880.44
2024-02-21T17:22:21.724Z,98889.47
2024-02-21T17:25:24.554Z,98886.00
2024-02-21T17:28:27.071Z,98891.44
2024-02-21T17:31:30.085Z,98886.09
2024-02-21T17:34:32.957Z,98887.91
2024-02-21T17:37:36.192Z,98883.41
2024-02-21T17:40:38.871Z,98874.41
2024-02-21T17:43:43.126Z,98877.09
2024-02-21T17:46:45.814Z,98881.63
2024-02-21T17:49:48.682Z,98875.44
2024-02-21T17:52:51.239Z,98870.19
2024-02-21T17:55:56.137Z,98864.06
2024-02-21T17:58:58.731Z,98864.13
2024-02-21T18:02:01.460Z,98862.28
2024-02-21T18:05:05.337Z,98853.41
2024-02-21T18:08:08.940Z,98851.66
2024-02-21T18:11:11.830Z,98850.87
2024-02-21T18:14:14.555Z,98839.38
2024-02-21T18:17:17.510Z,98838.53
2024-02-21T18:20:20.102Z,98839.41
2024-02-21T18:23:22.869Z,98834.06
2024-02-21T18:26:25.371Z,98837.69
2024-02-21T18:29:38.066Z,98832.41
2024-02-21T18:32:44.019Z,98834.09
2024-02-21T18:35:47.046Z,98834.09
2024-02-21T18:38:50.202Z,98831.53
2024-02-21T18:41:53.980Z,98831.62
2024-02-21T18:44:57.176Z,98829.94
2024-02-21T18:48:00.963Z,98826.38
2024-02-21T18:51:03.894Z,98832.66
2024-02-21T18:54:06.889Z,98833.66
2024-02-21T18:57:09.569Z,98835.81
2024-02-21T19:00:16.768Z,98828.00
2024-02-21T19:03:20.513Z,98816.66
2024-02-21T19:06:23.396Z,98819.44
2024-02-21T19:09:26.060Z,98814.31
2024-02-21T19:12:28.782Z,98805.53
2024-02-21T19:15:31.207Z,98801.09
2024-02-21T19:18:34.107Z,98803.78
2024-02-21T19:21:36.983Z,98799.69
2024-02-21T19:24:39.755Z,98725.72
2024-02-21T19:27:42.620Z,98787.53
2024-02-21T19:30:46.934Z,98797.37
2024-02-21T19:33:49.426Z,98790.41
2024-02-21T19:36:52.160Z,98791.38
2024-02-21T19:39:54.863Z,98727.16
2024-02-21T19:43:03.860Z,98780.13
2024-02-21T19:46:06.321Z,98795.94
2024-02-21T19:49:09.285Z,98781.72
2024-02-21T19:52:11.909Z,98772.94
2024-02-21T19:55:16.757Z,98780.97
2024-02-21T19:58:19.260Z,98775.56
2024-02-21T20:01:22.436Z,98717.69
2024-02-21T20:04:25.239Z,98775.69
2024-02-21T20:07:28.165Z,98783.69
2024-02-21T20:10:30.976Z,98779.25
2024-02-21T20:13:34.486Z,98767.75
2024-02-21T20:16:37.977Z,98770.38
2024-02-21T20:19:40.950Z,98744.75
2024-02-21T20:22:43.945Z,98766.75
2024-02-21T20:25:46.435Z,98765.87
2024-02-21T20:28:49.265Z,98764.19
2024-02-21T20:31:51.997Z,98760.69
2024-02-21T20:34:55.038Z,98732.44
2024-02-21T20:37:57.695Z,98752.69
2024-02-21T20:41:03.332Z,98746.47
2024-02-21T20:44:06.448Z,98744.78
2024-02-21T20:47:09.306Z,98744.81
2024-02-21T20:50:12.962Z,98741.31
2024-02-21T20:53:15.760Z,98713.94
2024-02-21T20:56:18.254Z,98733.28
2024-02-21T20:59:21.046Z,98729.72
2024-02-21T21:02:23.960Z,98728.84
2024-02-21T21:05:26.825Z,98730.56
2024-02-21T21:08:29.717Z,98730.63
2024-02-21T21:11:42.112Z,98731.50
2024-02-21T21:14:48.981Z,98724.34
2024-02-21T21:17:52.273Z,98654.97
2024-02-21T21:20:55.001Z,98719.06
2024-02-21T21:23:57.823Z,98726.09
2024-02-21T21:27:00.663Z,98738.56
2024-02-21T21:30:05.160Z,98734.16
2024-02-21T21:33:07.858Z,98730.56
2024-02-21T21:36:10.811Z,98707.69
2024-02-21T21:39:17.308Z,98730.63
2024-02-21T21:42:20.123Z,98720.87
2024-02-21T21:45:23.710Z,98717.34
2024-02-21T21:48:26.761Z,98721.00
2024-02-21T21:51:30.693Z,98713.94
2024-02-21T21:54:33.409Z,98712.16
2024-02-21T21:57:35.888Z,98702.44
2024-02-21T22:00:38.583Z,98705.19
2024-02-21T22:03:41.423Z,98711.47
2024-02-21T22:06:44.063Z,98709.75
2024-02-21T22:09:49.564Z,98705.28
2024-02-21T22:12:52.226Z,98716.03
2024-02-21T22:15:54.916Z,98711.63
2024-02-21T22:18:57.394Z,98708.97
2024-02-21T22:22:01.086Z,98709.88
2024-02-21T22:25:03.629Z,98709.00
2024-02-21T22:28:08.073Z,98701.88
2024-02-21T22:31:14.349Z,98706.34
2024-02-21T22:34:17.803Z,98705.41
2024-02-21T22:37:20.307Z,98702.78
2024-02-21T22:40:23.036Z,98700.13
2024-02-21T22:43:25.691Z,98685.00
2024-02-21T22:46:28.516Z,98693.00
2024-02-21T22:49:31.540Z,98688.63
2024-02-21T22:52:34.395Z,98685.97
2024-02-21T22:55:37.167Z,98686.03
2024-02-21T22:58:39.918Z,98692.31
2024-02-21T23:01:43.885Z,98689.72
2024-02-21T23:04:46.845Z,98672.84
2024-02-21T23:07:51.070Z,98668.47
2024-02-21T23:10:56.692Z,98657.94
2024-02-21T23:13:59.739Z,98650.91
2024-02-21T23:17:02.502Z,98648.31
2024-02-21T23:20:08.162Z,98640.47
2024-02-21T23:23:11.331Z,98632.53
2024-02-21T23:26:14.397Z,98628.19
2024-02-21T23:29:17.303Z,98608.88
2024-02-21T23:32:20.296Z,98608.88
2024-02-21T23:35:25.142Z,98612.47
2024-02-21T23:38:27.557Z,98607.25
2024-02-21T23:41:30.241Z,98600.25
2024-02-21T23:44:33.569Z,98589.75
2024-02-21T23:47:36.382Z,98598.53
2024-02-21T23:50:38.927Z,98587.94
2024-02-21T23:53:41.778Z,98585.31
2024-02-21T23:56:44.883Z,98580.09
2024-02-21T23:59:47.576Z,98508.00
